Time;durP1;ratioP1;P1;durP2;ratioP2;P2;SDS_P1;SDS_P2;PMS_P1;PMS_P2;Temp;Humidity;BMP_temperature;BMP_pressure;BME280_temperature;BME280_humidity;BME280_pressure;Samples;Min_cycle;Max_cycle;Signal;HPM_P1;HPM_P2
2024/02/25 00:02:06;;;;;;;4.13;2.20;;;;;;;;;;5054264;28;20021;-52
2024/02/25 00:04:32;;;;;;;3.60;2.45;;;;;;;;;;5053769;28;20040;-56
2024/02/25 00:06:58;;;;;;;4.13;2.95;;;;;;;;;;5054442;28;20036;-52
2024/02/25 00:09:24;;;;;;;3.67;2.03;;;;;;;;;;5054495;28;20447;-53
2024/02/25 00:11:50;;;;;;;4.35;2.47;;;;;;;;;;5054402;28;20028;-50
2024/02/25 00:14:16;;;;;;;3.50;2.22;;;;;;;;;;5053602;28;20075;-51
2024/02/25 00:16:42;;;;;;;2.88;1.98;;;;;;;;;;5051165;28;20028;-51
2024/02/25 00:19:08;;;;;;;3.20;2.13;;;;;;;;;;5052856;28;20394;-56
2024/02/25 00:21:34;;;;;;;3.63;2.22;;;;;;;;;;5053729;28;20031;-55
2024/02/25 00:24:00;;;;;;;3.50;2.45;;;;;;;;;;5053394;28;20100;-54
2024/02/25 00:26:27;;;;;;;4.07;2.45;;;;;;;;;;5052871;28;20021;-55
2024/02/25 00:28:52;;;;;;;6.50;2.70;;;;;;;;;;5053754;28;20033;-54
2024/02/25 00:31:19;;;;;;;5.15;2.85;;;;;;;;;;5053647;28;20311;-53
2024/02/25 00:33:46;;;;;;;3.72;2.35;;;;;;;;;;5053565;28;20558;-57
2024/02/25 00:36:12;;;;;;;3.20;1.88;;;;;;;;;;5053508;28;20029;-55
2024/02/25 00:38:38;;;;;;;3.85;2.05;;;;;;;;;;5053237;28;20104;-55
2024/02/25 00:41:04;;;;;;;3.05;2.15;;;;;;;;;;5052224;28;20083;-53
2024/02/25 00:43:30;;;;;;;3.42;2.25;;;;;;;;;;5053194;28;20079;-56
2024/02/25 00:45:56;;;;;;;4.10;2.63;;;;;;;;;;5053444;28;20101;-56
2024/02/25 00:48:22;;;;;;;3.65;2.25;;;;;;;;;;5053668;28;20025;-50
2024/02/25 00:50:48;;;;;;;3.65;2.17;;;;;;;;;;5053919;28;20079;-55
2024/02/25 00:53:16;;;;;;;4.43;1.85;;;;;;;;;;5053835;28;20467;-53
2024/02/25 00:55:42;;;;;;;4.75;2.90;;;;;;;;;;5053781;28;20037;-53
2024/02/25 00:58:08;;;;;;;4.32;2.45;;;;;;;;;;5053908;28;20029;-57
2024/02/25 01:00:34;;;;;;;3.25;2.15;;;;;;;;;;5053406;28;20422;-56
2024/02/25 01:02:59;;;;;;;5.05;2.47;;;;;;;;;;5053768;28;20029;-55
2024/02/25 01:05:25;;;;;;;4.28;2.20;;;;;;;;;;5053021;28;20057;-55
2024/02/25 01:07:51;;;;;;;3.03;1.75;;;;;;;;;;5052894;28;20493;-52
2024/02/25 01:10:17;;;;;;;3.80;2.40;;;;;;;;;;5053832;28;20018;-52
2024/02/25 01:12:44;;;;;;;4.45;2.40;;;;;;;;;;5053270;28;20052;-55
2024/02/25 01:15:10;;;;;;;4.60;2.85;;;;;;;;;;5054075;28;20417;-53
2024/02/25 01:17:36;;;;;;;3.72;2.22;;;;;;;;;;5053732;28;20427;-53
2024/02/25 01:20:02;;;;;;;3.55;2.50;;;;;;;;;;5053493;28;20021;-50
2024/02/25 01:22:28;;;;;;;4.28;2.55;;;;;;;;;;5053611;28;20060;-54
2024/02/25 01:24:54;;;;;;;4.60;3.22;;;;;;;;;;5052960;28;20116;-54
2024/02/25 01:27:20;;;;;;;2.97;2.17;;;;;;;;;;5053684;28;20454;-53
2024/02/25 01:29:46;;;;;;;3.90;2.75;;;;;;;;;;5053962;28;20459;-54
2024/02/25 01:32:16;;;;;;;4.15;2.50;;;;;;;;;;5053304;28;20036;-53
2024/02/25 01:34:42;;;;;;;4.50;2.40;;;;;;;;;;5053328;28;20060;-55
2024/02/25 01:37:08;;;;;;;3.33;2.25;;;;;;;;;;5053563;28;20443;-54
2024/02/25 01:39:34;;;;;;;2.53;1.80;;;;;;;;;;5056585;28;20171;-55
2024/02/25 01:42:00;;;;;;;4.35;2.95;;;;;;;;;;5056391;28;20067;-54
2024/02/25 01:44:26;;;;;;;3.75;2.28;;;;;;;;;;5057051;28;20122;-53
2024/02/25 01:46:52;;;;;;;4.93;2.65;;;;;;;;;;5057086;28;20035;-56
2024/02/25 01:49:18;;;;;;;3.50;2.85;;;;;;;;;;5057108;28;20371;-54
2024/02/25 01:51:44;;;;;;;3.50;2.55;;;;;;;;;;5056447;28;20028;-55
2024/02/25 01:54:11;;;;;;;4.78;2.15;;;;;;;;;;5056951;28;20029;-55
2024/02/25 01:56:37;;;;;;;4.25;2.67;;;;;;;;;;5056532;28;20045;-54
2024/02/25 01:59:03;;;;;;;4.25;2.13;;;;;;;;;;5056302;28;20117;-54
2024/02/25 02:01:30;;;;;;;3.85;2.30;;;;;;;;;;5056282;28;20033;-54
2024/02/25 02:03:56;;;;;;;7.20;2.65;;;;;;;;;;5056201;28;20458;-53
2024/02/25 02:06:22;;;;;;;3.40;2.67;;;;;;;;;;5056486;28;20057;-55
2024/02/25 02:08:48;;;;;;;4.38;2.60;;;;;;;;;;5056510;28;20048;-55
2024/02/25 02:11:20;;;;;;;3.83;2.33;;;;;;;;;;5056115;28;20025;-53
2024/02/25 02:13:46;;;;;;;4.65;2.90;;;;;;;;;;5056129;28;20033;-51
2024/02/25 02:16:13;;;;;;;3.35;2.25;;;;;;;;;;5056009;28;20028;-54
2024/02/25 02:18:40;;;;;;;4.75;2.80;;;;;;;;;;5055336;28;20056;-53
2024/02/25 02:21:06;;;;;;;2.92;1.88;;;;;;;;;;5055963;28;20025;-52
2024/02/25 02:23:35;;;;;;;6.47;2.22;;;;;;;;;;5055770;28;20043;-55
2024/02/25 02:26:01;;;;;;;2.97;2.25;;;;;;;;;;5055735;28;20156;-51
2024/02/25 02:28:27;;;;;;;3.67;2.25;;;;;;;;;;5056376;28;20360;-50
2024/02/25 02:30:53;;;;;;;5.40;2.90;;;;;;;;;;5055495;28;20035;-55
2024/02/25 02:33:19;;;;;;;3.55;2.10;;;;;;;;;;5056044;28;20021;-55
2024/02/25 02:35:45;;;;;;;3.45;2.20;;;;;;;;;;5055677;28;20139;-53
2024/02/25 02:38:11;;;;;;;4.35;2.78;;;;;;;;;;5056760;28;20392;-52
2024/02/25 02:40:37;;;;;;;3.95;2.45;;;;;;;;;;5055517;28;20110;-55
2024/02/25 02:43:04;;;;;;;5.10;2.92;;;;;;;;;;5055949;28;20072;-55
2024/02/25 02:45:30;;;;;;;4.30;2.38;;;;;;;;;;5055509;28;20033;-51
2024/02/25 02:47:56;;;;;;;5.30;2.92;;;;;;;;;;5055806;28;20053;-49
2024/02/25 02:50:22;;;;;;;3.63;2.67;;;;;;;;;;5054103;28;20060;-52
2024/02/25 02:52:48;;;;;;;4.10;2.33;;;;;;;;;;5055202;28;20025;-55
2024/02/25 02:55:14;;;;;;;3.33;2.40;;;;;;;;;;5055766;28;20027;-55
2024/02/25 02:57:40;;;;;;;4.85;2.92;;;;;;;;;;5055843;28;20084;-53
2024/02/25 03:00:08;;;;;;;5.10;2.80;;;;;;;;;;5056027;28;20362;-55
2024/02/25 03:02:34;;;;;;;3.13;2.65;;;;;;;;;;5055067;28;20033;-53
2024/02/25 03:05:00;;;;;;;5.38;3.13;;;;;;;;;;5054672;28;20079;-53
2024/02/25 03:07:29;;;;;;;5.03;2.45;;;;;;;;;;5054745;28;20037;-53
2024/02/25 03:09:55;;;;;;;5.13;3.20;;;;;;;;;;5055909;28;20414;-53
2024/02/25 03:12:21;;;;;;;3.60;2.88;;;;;;;;;;5054935;28;20036;-50
2024/02/25 03:14:47;;;;;;;3.60;2.83;;;;;;;;;;5055410;28;20082;-55
2024/02/25 03:17:13;;;;;;;5.10;2.72;;;;;;;;;;5054815;28;20065;-53
2024/02/25 03:19:39;;;;;;;4.35;2.75;;;;;;;;;;5054898;28;20024;-50
2024/02/25 03:22:04;;;;;;;4.28;2.60;;;;;;;;;;5054727;28;20036;-53
2024/02/25 03:24:31;;;;;;;4.85;3.00;;;;;;;;;;5054365;28;20487;-52
2024/02/25 03:26:57;;;;;;;4.43;2.83;;;;;;;;;;5054530;28;20052;-53
2024/02/25 03:29:23;;;;;;;3.75;2.85;;;;;;;;;;5055157;28;20021;-53
2024/02/25 03:31:49;;;;;;;4.57;2.85;;;;;;;;;;5054857;28;20029;-53
2024/02/25 03:34:15;;;;;;;3.97;2.53;;;;;;;;;;5054540;28;20033;-52
2024/02/25 03:36:41;;;;;;;4.68;3.38;;;;;;;;;;5054498;28;20039;-52
2024/02/25 03:39:07;;;;;;;5.15;3.35;;;;;;;;;;5054750;28;20055;-51
2024/02/25 03:41:32;;;;;;;4.72;3.67;;;;;;;;;;5054123;28;20100;-52
2024/02/25 03:43:59;;;;;;;4.10;2.55;;;;;;;;;;5054584;28;20123;-52
2024/02/25 03:46:25;;;;;;;4.05;3.05;;;;;;;;;;5054279;28;20029;-53
2024/02/25 03:48:51;;;;;;;3.88;3.10;;;;;;;;;;5055149;28;20256;-51
2024/02/25 03:51:17;;;;;;;3.35;2.47;;;;;;;;;;5054169;28;20367;-54
2024/02/25 03:53:44;;;;;;;3.42;3.08;;;;;;;;;;5054749;28;20033;-52
2024/02/25 03:56:10;;;;;;;4.45;2.70;;;;;;;;;;5054675;28;20067;-51
2024/02/25 03:58:36;;;;;;;4.78;3.05;;;;;;;;;;5054074;28;20127;-53
2024/02/25 04:01:02;;;;;;;4.78;3.17;;;;;;;;;;5052792;28;20537;-50
2024/02/25 04:03:27;;;;;;;3.72;2.83;;;;;;;;;;5053931;28;20035;-54
2024/02/25 04:05:53;;;;;;;5.55;3.08;;;;;;;;;;5054739;28;20455;-51
2024/02/25 04:08:19;;;;;;;4.07;3.22;;;;;;;;;;5054026;28;20021;-50
2024/02/25 04:10:45;;;;;;;2.78;2.30;;;;;;;;;;5053925;28;20121;-54
2024/02/25 04:13:11;;;;;;;2.88;2.25;;;;;;;;;;5054141;28;20068;-54
2024/02/25 04:15:37;;;;;;;3.88;2.75;;;;;;;;;;5054404;28;20025;-49
2024/02/25 04:18:04;;;;;;;4.20;2.95;;;;;;;;;;5054208;28;20406;-49
2024/02/25 04:20:30;;;;;;;2.25;1.70;;;;;;;;;;5054334;28;20064;-51
2024/02/25 04:22:56;;;;;;;2.92;2.05;;;;;;;;;;5054197;28;20359;-52
2024/02/25 04:25:22;;;;;;;3.10;2.17;;;;;;;;;;5053322;28;20437;-51
2024/02/25 04:27:48;;;;;;;3.67;2.55;;;;;;;;;;5053750;28;20040;-49
2024/02/25 04:30:14;;;;;;;4.13;2.35;;;;;;;;;;5053673;28;20029;-53
2024/02/25 04:32:43;;;;;;;7.03;2.88;;;;;;;;;;5053662;28;20375;-51
2024/02/25 04:35:09;;;;;;;3.58;2.25;;;;;;;;;;5052926;28;20029;-51
2024/02/25 04:37:35;;;;;;;4.68;2.97;;;;;;;;;;5052525;28;20040;-53
2024/02/25 04:40:01;;;;;;;3.45;2.30;;;;;;;;;;5053398;28;20033;-50
2024/02/25 04:42:27;;;;;;;3.22;2.25;;;;;;;;;;5053590;28;20025;-52
2024/02/25 04:44:53;;;;;;;5.72;2.40;;;;;;;;;;5053438;28;20032;-55
2024/02/25 04:47:19;;;;;;;3.55;2.55;;;;;;;;;;5053755;28;20052;-52
2024/02/25 04:49:46;;;;;;;4.63;2.72;;;;;;;;;;5054369;28;20029;-54
2024/02/25 04:52:12;;;;;;;5.32;3.00;;;;;;;;;;5053496;28;20090;-53
2024/02/25 04:54:38;;;;;;;4.38;2.78;;;;;;;;;;5053453;28;20032;-52
2024/02/25 04:57:04;;;;;;;4.50;3.10;;;;;;;;;;5053606;28;20471;-55
2024/02/25 04:59:30;;;;;;;3.60;2.50;;;;;;;;;;5053429;28;20021;-55
2024/02/25 05:01:56;;;;;;;4.47;2.65;;;;;;;;;;5053358;28;20029;-54
2024/02/25 05:04:24;;;;;;;4.90;2.30;;;;;;;;;;5053253;28;20037;-51
2024/02/25 05:06:50;;;;;;;5.25;2.75;;;;;;;;;;5053872;28;20037;-54
2024/02/25 05:09:16;;;;;;;4.35;2.80;;;;;;;;;;5053618;28;20040;-55
2024/02/25 05:11:41;;;;;;;3.58;2.38;;;;;;;;;;5053584;28;20071;-53
2024/02/25 05:14:07;;;;;;;4.03;2.50;;;;;;;;;;5055371;28;20081;-53
2024/02/25 05:16:33;;;;;;;4.63;2.08;;;;;;;;;;5057130;28;20530;-52
2024/02/25 05:18:59;;;;;;;2.90;2.35;;;;;;;;;;5057671;28;20060;-54
2024/02/25 05:21:25;;;;;;;2.78;1.50;;;;;;;;;;5057071;28;20103;-52
2024/02/25 05:23:51;;;;;;;3.60;2.70;;;;;;;;;;5056941;28;20029;-50
2024/02/25 05:26:17;;;;;;;3.00;2.28;;;;;;;;;;5056893;28;20033;-55
2024/02/25 05:28:43;;;;;;;3.50;2.40;;;;;;;;;;5057482;28;20128;-53
2024/02/25 05:31:13;;;;;;;4.25;2.30;;;;;;;;;;5057383;28;20036;-54
2024/02/25 05:33:39;;;;;;;4.00;3.00;;;;;;;;;;5057708;28;20033;-56
2024/02/25 05:36:05;;;;;;;4.18;2.25;;;;;;;;;;5056748;28;20379;-52
2024/02/25 05:38:31;;;;;;;6.60;2.83;;;;;;;;;;5056568;28;20489;-50
2024/02/25 05:40:57;;;;;;;5.10;2.60;;;;;;;;;;5056410;28;20017;-55
2024/02/25 05:43:24;;;;;;;3.58;2.35;;;;;;;;;;5056567;28;20021;-50
2024/02/25 05:45:50;;;;;;;2.88;2.08;;;;;;;;;;5055299;28;20120;-54
2024/02/25 05:48:16;;;;;;;2.72;2.22;;;;;;;;;;5056568;28;20048;-54
2024/02/25 05:50:42;;;;;;;4.45;2.20;;;;;;;;;;5057060;28;20033;-52
2024/02/25 05:53:08;;;;;;;6.75;3.28;;;;;;;;;;5056510;28;20025;-54
2024/02/25 05:55:34;;;;;;;3.42;2.38;;;;;;;;;;5056174;28;20021;-55
2024/02/25 05:58:00;;;;;;;2.65;1.95;;;;;;;;;;5056093;28;20417;-56
2024/02/25 06:00:26;;;;;;;5.18;2.70;;;;;;;;;;5055938;28;20021;-54
2024/02/25 06:02:52;;;;;;;3.88;2.53;;;;;;;;;;5055722;28;20120;-55
2024/02/25 06:05:18;;;;;;;4.15;2.50;;;;;;;;;;5055648;28;20124;-52
2024/02/25 06:07:45;;;;;;;4.68;2.58;;;;;;;;;;5055680;28;20119;-52
2024/02/25 06:10:11;;;;;;;3.47;2.60;;;;;;;;;;5055850;28;20175;-55
2024/02/25 06:12:38;;;;;;;3.15;2.45;;;;;;;;;;5054643;28;20022;-54
2024/02/25 06:15:11;;;;;;;4.05;2.63;;;;;;;;;;5055001;28;20068;-52
2024/02/25 06:17:37;;;;;;;3.53;2.47;;;;;;;;;;5054997;28;20033;-53
2024/02/25 06:20:03;;;;;;;4.47;3.15;;;;;;;;;;5055527;28;20083;-54
2024/02/25 06:22:29;;;;;;;4.05;2.72;;;;;;;;;;5054150;28;20032;-53
2024/02/25 06:24:55;;;;;;;5.03;2.45;;;;;;;;;;5053429;28;20037;-52
2024/02/25 06:27:22;;;;;;;3.33;2.50;;;;;;;;;;5054826;28;20029;-54
2024/02/25 06:29:48;;;;;;;3.67;2.17;;;;;;;;;;5055373;28;20032;-52
2024/02/25 06:32:14;;;;;;;4.40;2.78;;;;;;;;;;5054750;28;20021;-51
2024/02/25 06:34:40;;;;;;;4.07;2.63;;;;;;;;;;5054727;28;20036;-54
2024/02/25 06:37:06;;;;;;;4.70;2.83;;;;;;;;;;5054696;28;20120;-55
2024/02/25 06:39:32;;;;;;;5.63;2.50;;;;;;;;;;5055492;28;20466;-53
2024/02/25 06:41:58;;;;;;;4.40;3.00;;;;;;;;;;5055382;28;20036;-49
2024/02/25 06:44:24;;;;;;;4.03;3.00;;;;;;;;;;5054541;28;20028;-55
2024/02/25 06:46:50;;;;;;;3.85;2.88;;;;;;;;;;5054586;28;20040;-55
2024/02/25 06:49:16;;;;;;;4.28;2.92;;;;;;;;;;5054849;28;20032;-52
2024/02/25 06:51:42;;;;;;;3.67;2.78;;;;;;;;;;5055278;28;20029;-52
2024/02/25 06:54:07;;;;;;;4.60;2.97;;;;;;;;;;5054440;28;20035;-56
2024/02/25 06:58:12;;;;;;;3.70;3.03;;;;;;;;;;5069974;28;20740;-54
2024/02/25 07:00:38;;;;;;;3.92;2.40;;;;;;;;;;5069841;28;20041;-55
2024/02/25 07:03:04;;;;;;;4.50;3.00;;;;;;;;;;5070757;28;20033;-54
2024/02/25 07:05:30;;;;;;;3.42;2.53;;;;;;;;;;5071230;28;20025;-56
2024/02/25 07:07:56;;;;;;;4.35;2.38;;;;;;;;;;5071618;28;20335;-56
2024/02/25 07:10:22;;;;;;;8.95;2.33;;;;;;;;;;5071271;28;20026;-55
2024/02/25 07:12:48;;;;;;;4.80;2.78;;;;;;;;;;5070687;28;20029;-55
2024/02/25 07:15:14;;;;;;;6.00;3.03;;;;;;;;;;5070886;28;20382;-55
2024/02/25 07:17:41;;;;;;;3.15;2.17;;;;;;;;;;5070674;28;20086;-57
2024/02/25 07:20:07;;;;;;;2.33;1.70;;;;;;;;;;5070755;28;20040;-56
2024/02/25 07:22:33;;;;;;;2.85;2.08;;;;;;;;;;5070725;28;20348;-57
2024/02/25 07:24:59;;;;;;;2.55;1.88;;;;;;;;;;5070307;28;20151;-58
2024/02/25 07:27:25;;;;;;;2.85;2.08;;;;;;;;;;5071166;28;20123;-57
2024/02/25 07:29:51;;;;;;;2.72;1.45;;;;;;;;;;5070901;28;20056;-57
2024/02/25 07:32:17;;;;;;;2.78;1.55;;;;;;;;;;5070493;28;20020;-57
2024/02/25 07:34:43;;;;;;;3.05;1.33;;;;;;;;;;5070683;28;20021;-58
2024/02/25 07:37:09;;;;;;;2.80;1.58;;;;;;;;;;5070727;28;20033;-57
2024/02/25 07:39:37;;;;;;;4.50;1.55;;;;;;;;;;5070764;28;20374;-58
2024/02/25 07:42:03;;;;;;;3.45;1.63;;;;;;;;;;5070203;28;20123;-58
2024/02/25 07:44:29;;;;;;;3.15;1.40;;;;;;;;;;5070248;28;20025;-54
2024/02/25 07:46:55;;;;;;;2.75;1.27;;;;;;;;;;5070235;28;20051;-56
2024/02/25 07:49:21;;;;;;;2.60;1.88;;;;;;;;;;5070682;28;20111;-57
2024/02/25 07:51:47;;;;;;;2.20;1.35;;;;;;;;;;5070339;28;20032;-58
2024/02/25 07:54:13;;;;;;;3.45;1.60;;;;;;;;;;5069779;28;20017;-59
2024/02/25 07:56:39;;;;;;;2.78;1.50;;;;;;;;;;5069770;28;20053;-57
2024/02/25 07:59:05;;;;;;;3.97;2.10;;;;;;;;;;5070884;28;20036;-56
2024/02/25 08:01:35;;;;;;;2.40;1.58;;;;;;;;;;5069649;28;20376;-58
2024/02/25 08:04:00;;;;;;;2.70;1.60;;;;;;;;;;5069584;28;20036;-56
2024/02/25 08:06:27;;;;;;;2.83;1.20;;;;;;;;;;5070313;28;20024;-57
2024/02/25 08:08:54;;;;;;;1.98;1.25;;;;;;;;;;5060539;28;20481;-57
2024/02/25 08:11:20;;;;;;;3.45;1.52;;;;;;;;;;5056395;28;20028;-58
2024/02/25 08:13:46;;;;;;;2.75;1.65;;;;;;;;;;5057077;28;20025;-56
2024/02/25 08:16:11;;;;;;;2.33;1.20;;;;;;;;;;5055863;28;20025;-56
2024/02/25 08:18:37;;;;;;;3.08;1.40;;;;;;;;;;5056383;28;20116;-56
2024/02/25 08:21:03;;;;;;;3.47;1.40;;;;;;;;;;5056781;28;20032;-57
2024/02/25 08:23:29;;;;;;;3.85;1.55;;;;;;;;;;5056391;28;20075;-57
2024/02/25 08:25:55;;;;;;;1.70;1.00;;;;;;;;;;5056242;28;20025;-57
2024/02/25 08:28:21;;;;;;;3.08;1.13;;;;;;;;;;5056130;28;20025;-58
2024/02/25 08:30:47;;;;;;;2.72;1.50;;;;;;;;;;5056237;28;20044;-57
2024/02/25 08:33:13;;;;;;;6.05;1.70;;;;;;;;;;5055909;28;20029;-57
2024/02/25 08:35:39;;;;;;;3.22;1.80;;;;;;;;;;5056651;28;20021;-57
2024/02/25 08:38:05;;;;;;;2.58;1.45;;;;;;;;;;5056442;28;20036;-57
2024/02/25 08:40:31;;;;;;;3.45;1.17;;;;;;;;;;5056258;28;20033;-55
2024/02/25 08:42:58;;;;;;;4.15;1.23;;;;;;;;;;5056134;28;20033;-56
2024/02/25 08:45:24;;;;;;;1.92;1.13;;;;;;;;;;5056220;28;20025;-55
2024/02/25 08:47:50;;;;;;;2.03;1.13;;;;;;;;;;5055995;28;20104;-57
2024/02/25 08:50:15;;;;;;;2.63;1.08;;;;;;;;;;5055313;28;20036;-56
2024/02/25 08:52:41;;;;;;;1.90;1.20;;;;;;;;;;5056248;28;20029;-58
2024/02/25 08:55:08;;;;;;;3.28;1.58;;;;;;;;;;5055525;28;20104;-57
2024/02/25 08:57:34;;;;;;;2.40;1.13;;;;;;;;;;5055472;28;20060;-57
2024/02/25 09:00:00;;;;;;;2.58;1.67;;;;;;;;;;5055276;28;20029;-56
2024/02/25 09:02:26;;;;;;;3.00;1.33;;;;;;;;;;5055379;28;20051;-56
2024/02/25 09:04:52;;;;;;;3.75;1.65;;;;;;;;;;5055474;28;20021;-58
2024/02/25 09:07:18;;;;;;;2.90;1.13;;;;;;;;;;5055845;28;20447;-57
2024/02/25 09:09:44;;;;;;;2.05;1.00;;;;;;;;;;5055901;28;20471;-54
2024/02/25 09:12:13;;;;;;;2.90;1.33;;;;;;;;;;5055996;28;20041;-53
2024/02/25 09:14:39;;;;;;;1.85;0.98;;;;;;;;;;5055638;28;20036;-56
2024/02/25 09:17:05;;;;;;;2.15;1.25;;;;;;;;;;5054975;28;20040;-57
2024/02/25 09:19:31;;;;;;;1.35;0.80;;;;;;;;;;5054821;28;20506;-58
2024/02/25 09:21:57;;;;;;;1.90;0.90;;;;;;;;;;5054542;28;20021;-57
2024/02/25 09:24:23;;;;;;;2.13;0.93;;;;;;;;;;5055867;28;20028;-55
2024/02/25 09:26:49;;;;;;;1.73;0.90;;;;;;;;;;5054791;28;20029;-57
2024/02/25 09:29:15;;;;;;;1.98;0.90;;;;;;;;;;5055365;28;20121;-55
2024/02/25 09:31:41;;;;;;;1.52;0.80;;;;;;;;;;5054994;28;20025;-58
2024/02/25 09:34:10;;;;;;;9.23;1.10;;;;;;;;;;5054648;28;20123;-59
2024/02/25 09:36:36;;;;;;;2.78;1.00;;;;;;;;;;5054548;28;20124;-57
2024/02/25 09:39:03;;;;;;;1.17;0.57;;;;;;;;;;5055208;28;20070;-54
2024/02/25 09:41:30;;;;;;;3.88;0.80;;;;;;;;;;5054559;28;20475;-56
2024/02/25 09:43:56;;;;;;;1.63;0.70;;;;;;;;;;5055120;28;20116;-56
2024/02/25 09:46:25;;;;;;;2.10;1.02;;;;;;;;;;5054727;28;20025;-57
2024/02/25 09:48:54;;;;;;;1.88;0.80;;;;;;;;;;5054569;28;20057;-57
2024/02/25 09:51:21;;;;;;;1.40;0.70;;;;;;;;;;5054400;28;20033;-57
2024/02/25 09:53:50;;;;;;;2.65;0.75;;;;;;;;;;5054232;28;20029;-55
2024/02/25 09:56:17;;;;;;;2.42;0.80;;;;;;;;;;5054611;28;20483;-53
2024/02/25 09:58:42;;;;;;;1.13;0.57;;;;;;;;;;5054197;28;20025;-55
2024/02/25 10:01:08;;;;;;;2.55;0.60;;;;;;;;;;5054530;28;20087;-55
2024/02/25 10:03:34;;;;;;;1.15;0.47;;;;;;;;;;5054187;28;20079;-56
2024/02/25 10:06:00;;;;;;;0.93;0.45;;;;;;;;;;5053997;28;20048;-56
2024/02/25 10:08:26;;;;;;;1.30;0.60;;;;;;;;;;5054770;28;20025;-55
2024/02/25 10:10:52;;;;;;;0.93;0.50;;;;;;;;;;5053924;28;20029;-55
2024/02/25 10:13:18;;;;;;;1.02;0.50;;;;;;;;;;5053973;28;20021;-54
2024/02/25 10:15:44;;;;;;;1.25;0.50;;;;;;;;;;5054759;28;20359;-57
2024/02/25 10:18:11;;;;;;;0.88;0.50;;;;;;;;;;5054200;28;20375;-53
2024/02/25 10:20:37;;;;;;;1.73;0.47;;;;;;;;;;5053889;28;20043;-56
2024/02/25 10:23:12;;;;;;;0.50;0.20;;;;;;;;;;5054548;28;20103;-57
2024/02/25 10:25:39;;;;;;;0.70;0.32;;;;;;;;;;5053984;28;20119;-58
2024/02/25 10:28:18;;;;;;;0.80;0.40;;;;;;;;;;5054614;28;20339;-58
2024/02/25 10:31:00;;;;;;;1.65;0.70;;;;;;;;;;5053588;28;20028;-58
2024/02/25 10:33:26;;;;;;;0.75;0.35;;;;;;;;;;5053762;28;20071;-56
2024/02/25 10:35:53;;;;;;;0.22;0.20;;;;;;;;;;5053600;28;20059;-57
2024/02/25 10:38:20;;;;;;;0.65;0.32;;;;;;;;;;5054253;28;20056;-57
2024/02/25 10:40:48;;;;;;;0.90;0.28;;;;;;;;;;5054006;28;20025;-58
2024/02/25 10:43:14;;;;;;;0.50;0.20;;;;;;;;;;5053563;28;20025;-57
2024/02/25 10:45:44;;;;;;;1.13;0.28;;;;;;;;;;5053916;28;20078;-54
2024/02/25 10:48:14;;;;;;;0.30;0.10;;;;;;;;;;5053778;28;20029;-58
2024/02/25 10:50:40;;;;;;;0.95;0.40;;;;;;;;;;5053619;28;20029;-58
2024/02/25 10:53:06;;;;;;;0.52;0.22;;;;;;;;;;5053723;28;20029;-57
2024/02/25 10:55:33;;;;;;;1.05;0.40;;;;;;;;;;5054013;28;20025;-55
2024/02/25 10:57:59;;;;;;;1.38;0.52;;;;;;;;;;5053906;28;20052;-57
2024/02/25 11:00:25;;;;;;;0.70;0.38;;;;;;;;;;5052853;28;20110;-57
2024/02/25 11:02:51;;;;;;;0.45;0.20;;;;;;;;;;5053091;28;20029;-57
2024/02/25 11:05:18;;;;;;;0.55;0.20;;;;;;;;;;5053901;28;20140;-57
2024/02/25 11:07:43;;;;;;;0.30;0.20;;;;;;;;;;5053089;28;20107;-57
2024/02/25 11:10:19;;;;;;;4.75;0.50;;;;;;;;;;5053261;28;20063;-56
2024/02/25 11:12:45;;;;;;;1.33;0.50;;;;;;;;;;5053269;28;20036;-57
2024/02/25 11:15:18;;;;;;;0.32;0.20;;;;;;;;;;5053332;28;20029;-57
2024/02/25 11:17:48;;;;;;;1.00;0.50;;;;;;;;;;5053901;28;20060;-56
2024/02/25 11:20:19;;;;;;;2.22;0.40;;;;;;;;;;5053486;28;20532;-57
2024/02/25 11:22:49;;;;;;;0.85;0.43;;;;;;;;;;5053635;28;20033;-57
2024/02/25 11:25:27;;;;;;;0.63;0.30;;;;;;;;;;5053086;28;20425;-59
2024/02/25 11:27:57;;;;;;;0.35;0.20;;;;;;;;;;5053460;28;20036;-58
2024/02/25 11:30:23;;;;;;;1.10;0.28;;;;;;;;;;5052711;28;20513;-57
2024/02/25 11:32:49;;;;;;;0.95;0.30;;;;;;;;;;5053278;28;20079;-57
2024/02/25 11:35:17;;;;;;;0.57;0.30;;;;;;;;;;5053539;28;20029;-57
2024/02/25 11:37:43;;;;;;;0.85;0.47;;;;;;;;;;5052351;28;20096;-60
2024/02/25 11:40:10;;;;;;;0.47;0.20;;;;;;;;;;5053022;28;20367;-57
2024/02/25 11:42:36;;;;;;;0.73;0.20;;;;;;;;;;5053020;28;20025;-59
2024/02/25 11:45:02;;;;;;;0.55;0.30;;;;;;;;;;5056666;28;20017;-56
2024/02/25 11:47:27;;;;;;;0.17;0.10;;;;;;;;;;5057239;28;20028;-58
2024/02/25 11:49:53;;;;;;;0.28;0.10;;;;;;;;;;5056880;28;20127;-58
2024/02/25 11:52:19;;;;;;;0.57;0.25;;;;;;;;;;5057192;28;20021;-57
2024/02/25 11:54:45;;;;;;;0.68;0.30;;;;;;;;;;5056674;28;20024;-57
2024/02/25 11:57:11;;;;;;;0.75;0.20;;;;;;;;;;5056418;28;20045;-59
2024/02/25 11:59:37;;;;;;;0.50;0.30;;;;;;;;;;5056457;28;20131;-59
2024/02/25 12:02:04;;;;;;;1.20;0.40;;;;;;;;;;5056480;28;20067;-58
2024/02/25 12:04:31;;;;;;;0.60;0.20;;;;;;;;;;5056334;28;20033;-58
2024/02/25 12:06:58;;;;;;;0.32;0.10;;;;;;;;;;5056871;28;20029;-57
2024/02/25 12:09:24;;;;;;;0.75;0.32;;;;;;;;;;5056904;28;20029;-55
2024/02/25 12:11:50;;;;;;;0.20;0.10;;;;;;;;;;5056961;28;20029;-58
2024/02/25 12:14:20;;;;;;;0.45;0.20;;;;;;;;;;5056381;28;20526;-56
2024/02/25 12:16:46;;;;;;;2.95;0.40;;;;;;;;;;5055244;28;20037;-58
2024/02/25 12:19:13;;;;;;;0.35;0.20;;;;;;;;;;5057507;28;20025;-58
2024/02/25 12:21:42;;;;;;;0.85;0.30;;;;;;;;;;5056722;28;20029;-57
2024/02/25 12:24:08;;;;;;;3.83;0.55;;;;;;;;;;5056393;28;20115;-57
2024/02/25 12:26:54;;;;;;;0.65;0.40;;;;;;;;;;5056562;28;20111;-58
2024/02/25 12:29:21;;;;;;;1.80;0.60;;;;;;;;;;5056363;28;20029;-58
2024/02/25 12:31:47;;;;;;;0.70;0.30;;;;;;;;;;5056006;28;20021;-58
2024/02/25 12:34:13;;;;;;;0.40;0.20;;;;;;;;;;5056249;28;20106;-58
2024/02/25 12:36:43;;;;;;;0.50;0.20;;;;;;;;;;5056008;28;20033;-58
2024/02/25 12:39:15;;;;;;;1.10;0.20;;;;;;;;;;5056187;28;20037;-57
2024/02/25 12:41:41;;;;;;;0.52;0.20;;;;;;;;;;5056617;28;20025;-57
2024/02/25 12:44:07;;;;;;;0.30;0.20;;;;;;;;;;5055792;28;20108;-57
2024/02/25 12:46:34;;;;;;;0.50;0.20;;;;;;;;;;5055847;28;20037;-58
2024/02/25 12:49:07;;;;;;;0.93;0.40;;;;;;;;;;5056319;28;20403;-58
2024/02/25 12:51:33;;;;;;;0.60;0.22;;;;;;;;;;5055752;28;20459;-57
2024/02/25 12:54:00;;;;;;;0.55;0.28;;;;;;;;;;5055691;28;20027;-58
2024/02/25 12:56:26;;;;;;;1.77;0.73;;;;;;;;;;5056101;28;20102;-56
2024/02/25 12:58:52;;;;;;;0.88;0.30;;;;;;;;;;5055290;28;20025;-57
2024/02/25 13:01:18;;;;;;;0.30;0.17;;;;;;;;;;5056326;28;20025;-57
2024/02/25 13:03:44;;;;;;;1.25;0.43;;;;;;;;;;5055052;28;20112;-56
2024/02/25 13:06:10;;;;;;;0.25;0.10;;;;;;;;;;5055444;28;20025;-55
2024/02/25 13:08:36;;;;;;;0.73;0.32;;;;;;;;;;5056151;28;20032;-56
2024/02/25 13:11:02;;;;;;;1.25;0.43;;;;;;;;;;5055273;28;20356;-58
2024/02/25 13:13:28;;;;;;;0.52;0.30;;;;;;;;;;5055195;28;20074;-57
2024/02/25 13:15:56;;;;;;;1.05;0.50;;;;;;;;;;5055926;28;20028;-58
2024/02/25 13:18:22;;;;;;;0.65;0.32;;;;;;;;;;5055824;28;20041;-58
2024/02/25 13:20:48;;;;;;;0.38;0.20;;;;;;;;;;5055194;28;20043;-57
2024/02/25 13:23:14;;;;;;;0.45;0.10;;;;;;;;;;5055575;28;20024;-57
2024/02/25 13:25:41;;;;;;;0.47;0.30;;;;;;;;;;5054990;28;20052;-57
2024/02/25 13:28:09;;;;;;;0.70;0.25;;;;;;;;;;5055741;28;20036;-57
2024/02/25 13:30:36;;;;;;;1.48;0.47;;;;;;;;;;5054867;28;20121;-58
2024/02/25 13:33:02;;;;;;;1.52;0.43;;;;;;;;;;5055071;28;20424;-57
2024/02/25 13:35:28;;;;;;;0.82;0.30;;;;;;;;;;5055373;28;20021;-56
2024/02/25 13:37:54;;;;;;;2.70;0.43;;;;;;;;;;5055298;28;20479;-59
2024/02/25 13:40:20;;;;;;;1.10;0.50;;;;;;;;;;5055275;28;20028;-58
2024/02/25 13:42:46;;;;;;;1.10;0.43;;;;;;;;;;5055197;28;20017;-57
2024/02/25 13:45:12;;;;;;;0.38;0.20;;;;;;;;;;5054668;28;20455;-58
2024/02/25 13:47:38;;;;;;;0.43;0.20;;;;;;;;;;5054458;28;20454;-57
2024/02/25 13:50:05;;;;;;;1.55;0.52;;;;;;;;;;5054614;28;20090;-56
2024/02/25 13:52:31;;;;;;;2.78;0.65;;;;;;;;;;5054597;28;20029;-57
2024/02/25 13:54:57;;;;;;;1.33;0.52;;;;;;;;;;5055060;28;20067;-58
2024/02/25 13:57:23;;;;;;;2.75;0.40;;;;;;;;;;5054671;28;20077;-58
2024/02/25 13:59:49;;;;;;;0.80;0.52;;;;;;;;;;5054848;28;20029;-57
2024/02/25 14:02:15;;;;;;;1.63;0.43;;;;;;;;;;5055187;28;20025;-57
2024/02/25 14:04:41;;;;;;;0.70;0.30;;;;;;;;;;5054172;28;20115;-58
2024/02/25 14:07:07;;;;;;;0.77;0.30;;;;;;;;;;5053442;28;20500;-56
2024/02/25 14:09:33;;;;;;;0.90;0.40;;;;;;;;;;5054628;28;20024;-57
2024/02/25 14:11:59;;;;;;;0.70;0.30;;;;;;;;;;5053914;28;20024;-57
2024/02/25 14:14:25;;;;;;;1.17;0.40;;;;;;;;;;5054221;28;20099;-57
2024/02/25 14:16:52;;;;;;;1.05;0.30;;;;;;;;;;5054677;28;20033;-57
2024/02/25 14:19:18;;;;;;;0.93;0.50;;;;;;;;;;5055027;28;20534;-55
2024/02/25 14:21:44;;;;;;;0.68;0.30;;;;;;;;;;5054134;28;20029;-57
2024/02/25 14:24:10;;;;;;;1.23;0.40;;;;;;;;;;5054548;28;20060;-57
2024/02/25 14:26:36;;;;;;;0.77;0.40;;;;;;;;;;5054028;28;20471;-57
2024/02/25 14:29:06;;;;;;;1.55;0.35;;;;;;;;;;5054518;28;20443;-58
2024/02/25 14:31:33;;;;;;;0.40;0.28;;;;;;;;;;5054375;28;20060;-57
2024/02/25 14:33:58;;;;;;;1.15;0.50;;;;;;;;;;5054579;28;20021;-57
2024/02/25 14:36:25;;;;;;;0.35;0.20;;;;;;;;;;5054181;28;20455;-58
2024/02/25 14:38:51;;;;;;;1.20;0.40;;;;;;;;;;5053676;28;20047;-57
2024/02/25 14:41:25;;;;;;;0.60;0.35;;;;;;;;;;5053887;28;20032;-58